Springfield, IL (62712)

07:07 PM CDT del 19 Settembre 2014 (GMT -0500)
Downtown SPI (near South) | Change Station
CLOSE
Current Station
Stazione meteo personale
Location: Springfield, IL
Altitudine: 600 ft
Stazioni meteo nelle vicinanze

Alt. 600 ft 39.78 °N, 89.66 °W | Updated 2 minutes ago

Sereno
Sereno
72.5 °F
Sembra 76 °F
N
0.0
Vento Variabile Vento da SSE
Gusts 2.0 mph

Oggi
Massima -- | Minima -- °F
--% Possibilità di precip.
Ieri
Massima -- | Minima -- °F
Precip. -- in
6:43 AM 7:00 PM
Luna calante, 16% visible
Pressione 30.00 in
Visibilità 10.0 miglia
Nuvole Sereno
Indice di calore 76 °F
Punto di rugiada 57 °F
Umidità 58%
Piovosità 0.00 in
Spessore del manto nevoso Non disponibile.
Raggi UV 0 fuori da 12
Polline 6.20 fuori da 12
Ozono Buono
PM2.5 Moderato
Flu Activity Non disponibile.
METAR KSPI 192352Z 18006KT 10SM CLR 22/12 A3001 RMK AO2 SLP159 T02170122 10256 20217 56007

More Conditions Fewer Conditions

Pressione 30.00 in
Visibilità 10.0 miglia
Nuvole Sereno
Indice di calore 76 °F
Punto di rugiada 57 °F
Umidità 58%
Piovosità 0.00 in
Spessore del manto nevoso Non disponibile.
Raggi UV 0 fuori da 12
Polline 6.20 fuori da 12
Ozono Buono
PM2.5 Moderato
Flu Activity Non disponibile.
METAR KSPI 192352Z 18006KT 10SM CLR 22/12 A3001 RMK AO2 SLP159 T02170122 10256 20217 56007

More Conditions Fewer Conditions

10-Day Weather Forecast

Almanac

Astronomia

Sep. 19, 2014 Alba Tramonto
Ora attuale 06:43 CDT 19:00 CDT
Crepuscolo civile 06:16 CDT 19:27 CDT
Crepuscolo nautico 05:44 CDT 19:59 CDT
Crepuscolo astronomico 05:12 CDT 20:31 CDT
Luna 02:28 CDT (9/19) 16:29 CDT (9/19)
Estensione della luce visibile 13h 11m
Lunghezza del giorno
12h 17m
Tomorrow will be 2m 36s shorter.
Luna calante, 16% of the Moon is Illuminated
Oggi
Luna calante
Set 24
Nuovo
Ott 1
Primo quarto
Ott 8
Luna piena
Ott 15
Ultimo quarto

Gli estremi di oggi

State Highs State Lows

Community

WunderPhotos

Upload Photos

1,754,734 foto caricate!

WunderBlogs® & News

Nearby

Qualità dell'aria

  Qualità dell'aria Indice AQ Inquinante
Ieri Buono
OZONE
Attuale Moderato
PM2.5
Attuale Buono
OZONE
Venerdì Moderato
PM2.5
Sabato Moderato
PM2.5
Domenica Buono
PM2.5
Lunedì Buono
PM2.5
Martedì Buono
PM2.5

Profondità neve

Stazione Profondità Altitudine
Non sono state evidenziate nuove nevicate

Attività sismica

Città  Distanza Mag. Data & Ora
Non sono state riportate attività sismiche nelle vicinanze.
Minimo Magnitudo Mostrato è 2.5.

Temperature delle acque costiere

Località Temperatura
Nessun dato dalle stazioni

Stazioni meteo nelle vicinanze